createdAt,value
2018-11-14T00:02:45.933Z,8.67
2018-11-14T00:12:49.272Z,8.66
2018-11-14T00:22:45.892Z,8.73
2018-11-14T00:32:48.736Z,8.70
2018-11-14T00:42:45.940Z,8.68
2018-11-14T00:52:45.953Z,8.65
2018-11-14T01:02:45.873Z,8.58
2018-11-14T01:12:46.181Z,8.66
2018-11-14T01:22:45.914Z,8.64
2018-11-14T01:32:49.832Z,8.51
2018-11-14T01:42:46.223Z,8.41
2018-11-14T01:52:48.781Z,8.44
2018-11-14T02:02:51.569Z,8.46
2018-11-14T02:12:46.103Z,8.52
2018-11-14T02:22:46.073Z,8.48
2018-11-14T02:32:46.012Z,8.37
2018-11-14T02:42:45.976Z,8.32
2018-11-14T02:52:46.044Z,8.25
2018-11-14T03:02:49.049Z,8.22
2018-11-14T03:12:46.003Z,8.11
2018-11-14T03:22:46.071Z,7.84
2018-11-14T03:32:45.958Z,7.54
2018-11-14T03:42:46.004Z,7.23
2018-11-14T03:52:46.284Z,6.60
2018-11-14T04:02:45.937Z,6.70
2018-11-14T04:12:48.930Z,6.70
2018-11-14T04:22:46.218Z,6.31
2018-11-14T04:32:45.935Z,5.97
2018-11-14T04:42:45.986Z,5.94
2018-11-14T04:52:46.553Z,6.71
2018-11-14T05:02:46.559Z,7.04
2018-11-14T05:12:46.053Z,6.12
2018-11-14T05:22:45.893Z,5.16
2018-11-14T05:32:46.446Z,4.66
2018-11-14T05:42:45.871Z,4.61
2018-11-14T05:52:45.849Z,4.24
2018-11-14T06:02:45.873Z,4.08
2018-11-14T06:12:46.552Z,4.11
2018-11-14T06:22:45.826Z,4.03
2018-11-14T06:32:46.138Z,3.89
2018-11-14T06:42:45.959Z,4.06
2018-11-14T06:52:45.837Z,4.44
2018-11-14T07:02:45.793Z,4.86
2018-11-14T07:12:45.841Z,5.26
2018-11-14T07:22:45.874Z,5.66
2018-11-14T07:32:45.813Z,6.23
2018-11-14T07:42:45.876Z,7.21
2018-11-14T07:52:45.812Z,8.61
2018-11-14T08:02:45.850Z,9.37
2018-11-14T08:12:46.899Z,9.43
2018-11-14T08:22:45.844Z,9.87
2018-11-14T08:32:45.837Z,10.55
2018-11-14T08:42:45.792Z,10.74
2018-11-14T08:52:45.933Z,10.98
2018-11-14T09:02:45.989Z,11.54
2018-11-14T09:12:49.721Z,11.60
2018-11-14T09:22:45.966Z,11.70
2018-11-14T09:32:45.976Z,11.80
2018-11-14T09:42:47.524Z,12.25
2018-11-14T09:52:45.816Z,12.59
2018-11-14T10:02:46.053Z,13.25
2018-11-14T10:12:45.940Z,13.14
2018-11-14T10:22:46.601Z,13.52
2018-11-14T10:32:49.662Z,13.74
2018-11-14T10:42:45.999Z,13.90
2018-11-14T10:52:45.834Z,15.16
2018-11-14T11:02:45.982Z,14.19
2018-11-14T11:12:45.896Z,14.26
2018-11-14T11:22:46.015Z,14.40
2018-11-14T11:32:48.085Z,14.64
2018-11-14T11:42:45.932Z,14.63
2018-11-14T11:52:45.843Z,15.00
2018-11-14T12:02:45.913Z,15.50
2018-11-14T12:12:45.909Z,14.91
2018-11-14T12:22:46.589Z,15.45
2018-11-14T12:32:45.891Z,15.99
2018-11-14T12:42:45.923Z,15.62
2018-11-14T12:52:45.952Z,15.90
2018-11-14T13:02:46.160Z,16.07
2018-11-14T13:12:45.936Z,17.22
2018-11-14T13:22:45.931Z,17.40
2018-11-14T13:32:46.067Z,17.48
2018-11-14T13:42:45.954Z,16.76
2018-11-14T13:52:46.723Z,17.19
2018-11-14T14:02:45.964Z,17.42
2018-11-14T14:12:49.736Z,17.28
2018-11-14T14:22:45.971Z,16.76
2018-11-14T14:32:46.002Z,15.95
2018-11-14T14:42:49.097Z,15.32
2018-11-14T14:52:47.025Z,15.25
2018-11-14T15:02:49.370Z,14.50
2018-11-14T15:12:46.085Z,13.14
2018-11-14T15:22:49.926Z,12.68
2018-11-14T15:32:47.031Z,12.18
2018-11-14T15:42:46.013Z,11.72
2018-11-14T15:52:45.952Z,11.04
2018-11-14T16:02:47.044Z,10.45
2018-11-14T16:12:46.057Z,9.89
2018-11-14T16:22:46.057Z,9.45
2018-11-14T16:32:45.910Z,8.98
2018-11-14T16:42:45.949Z,8.62
2018-11-14T16:52:48.217Z,8.27
2018-11-14T17:02:49.764Z,7.90
2018-11-14T17:12:49.720Z,7.70
2018-11-14T17:22:46.648Z,7.22
2018-11-14T17:32:45.951Z,6.95
2018-11-14T17:42:46.221Z,6.70
2018-11-14T17:52:45.972Z,6.47
2018-11-14T18:02:46.662Z,6.42
2018-11-14T18:12:45.916Z,6.29
2018-11-14T18:22:45.997Z,5.94
2018-11-14T18:32:46.204Z,5.64
2018-11-14T18:42:46.139Z,5.52
2018-11-14T18:52:45.963Z,5.57
2018-11-14T19:02:46.565Z,5.43
2018-11-14T19:12:46.031Z,5.17
2018-11-14T19:22:45.965Z,4.79
2018-11-14T19:32:46.365Z,4.73
2018-11-14T19:42:46.875Z,4.73
2018-11-14T19:52:47.404Z,4.42
2018-11-14T20:02:45.985Z,4.64
2018-11-14T20:12:45.924Z,4.24
2018-11-14T20:22:45.916Z,4.09
2018-11-14T20:32:45.927Z,4.03
2018-11-14T20:42:46.527Z,3.82
2018-11-14T20:52:45.906Z,3.74
2018-11-14T21:02:45.886Z,3.46
2018-11-14T21:12:45.869Z,3.30
2018-11-14T21:22:47.267Z,3.33
2018-11-14T21:32:45.891Z,3.46
2018-11-14T21:42:45.916Z,3.11
2018-11-14T21:52:47.695Z,3.34
2018-11-14T22:02:45.808Z,3.02
2018-11-14T22:12:47.969Z,3.04
2018-11-14T22:22:45.852Z,2.79
2018-11-14T22:32:46.828Z,2.58
2018-11-14T22:42:47.022Z,2.75
2018-11-14T22:52:45.916Z,2.74
2018-11-14T23:02:45.874Z,2.58
2018-11-14T23:12:45.827Z,2.26
2018-11-14T23:22:45.877Z,1.93
2018-11-14T23:32:47.118Z,2.01
2018-11-14T23:42:46.545Z,2.01
2018-11-14T23:52:45.834Z,1.98
